createdAt,value
2018-09-17T00:00:23.228Z,5.20
2018-09-17T00:02:26.955Z,4.87
2018-09-17T00:04:32.796Z,5.13
2018-09-17T00:06:41.432Z,5.00
2018-09-17T00:08:45.183Z,5.30
2018-09-17T00:10:48.989Z,5.92
2018-09-17T00:12:52.847Z,4.90
2018-09-17T00:15:00.195Z,5.10
2018-09-17T00:17:11.910Z,4.47
2018-09-17T00:19:26.981Z,4.80
2018-09-17T00:21:33.787Z,4.83
2018-09-17T00:23:43.415Z,4.50
2018-09-17T00:25:47.276Z,4.67
2018-09-17T00:27:56.357Z,4.87
2018-09-17T00:30:02.529Z,5.27
2018-09-17T00:32:12.059Z,4.67
2018-09-17T00:34:20.130Z,4.97
2018-09-17T00:36:28.883Z,4.62
2018-09-17T00:38:32.713Z,4.70
2018-09-17T00:40:36.521Z,4.73
2018-09-17T00:42:40.272Z,4.37
2018-09-17T00:44:44.075Z,4.80
2018-09-17T00:46:47.916Z,4.50
2018-09-17T00:48:51.727Z,4.50
2018-09-17T00:50:59.431Z,4.97
2018-09-17T00:53:06.206Z,4.87
2018-09-17T00:55:09.992Z,5.47
2018-09-17T00:57:13.964Z,5.43
2018-09-17T00:59:17.779Z,5.97
2018-09-17T01:01:25.179Z,5.17
2018-09-17T01:03:29.002Z,6.12
2018-09-17T01:05:40.629Z,5.33
2018-09-17T01:07:44.474Z,5.20
2018-09-17T01:09:55.526Z,5.22
2018-09-17T01:12:04.795Z,5.10
2018-09-17T01:14:11.911Z,4.37
2018-09-17T01:16:18.487Z,4.97
2018-09-17T01:18:25.490Z,5.77
2018-09-17T01:20:29.394Z,5.20
2018-09-17T01:22:33.164Z,4.90
2018-09-17T01:24:36.942Z,5.43
2018-09-17T01:26:40.707Z,5.53
2018-09-17T01:28:44.451Z,5.77
2018-09-17T01:30:53.401Z,5.50
2018-09-17T01:33:00.199Z,5.20
2018-09-17T01:35:04.119Z,5.20
2018-09-17T01:37:10.812Z,5.30
2018-09-17T01:39:23.881Z,5.27
2018-09-17T01:41:32.517Z,5.63
2018-09-17T01:43:39.868Z,5.47
2018-09-17T01:45:49.926Z,5.70
2018-09-17T01:47:54.067Z,6.20
2018-09-17T01:50:02.454Z,6.50
2018-09-17T01:52:06.286Z,5.50
2018-09-17T01:54:10.036Z,6.53
2018-09-17T01:56:18.373Z,6.30
2018-09-17T01:58:23.133Z,7.50
2018-09-17T02:00:26.920Z,7.40
2018-09-17T02:02:30.823Z,6.70
2018-09-17T02:04:34.583Z,5.93
2018-09-17T02:06:38.384Z,6.00
2018-09-17T02:08:42.166Z,6.07
2018-09-17T02:10:45.957Z,6.40
2018-09-17T02:12:49.741Z,6.60
2018-09-17T02:14:53.557Z,6.60
2018-09-17T02:16:57.317Z,6.77
2018-09-17T02:19:06.998Z,7.13
2018-09-17T02:21:11.352Z,6.93
2018-09-17T02:23:15.112Z,7.60
2018-09-17T02:25:31.021Z,6.70
2018-09-17T02:27:34.864Z,7.70
2018-09-17T02:29:38.701Z,6.60
2018-09-17T02:31:42.514Z,7.00
2018-09-17T02:33:46.276Z,6.40
2018-09-17T02:35:50.108Z,6.87
2018-09-17T02:37:53.917Z,7.07
2018-09-17T02:39:57.796Z,6.33
2018-09-17T02:42:01.626Z,7.13
2018-09-17T02:44:05.363Z,7.23
2018-09-17T02:46:09.821Z,7.37
2018-09-17T02:48:13.564Z,7.40
2018-09-17T02:50:17.343Z,7.63
2018-09-17T02:52:21.087Z,7.60
2018-09-17T02:54:32.449Z,8.70
2018-09-17T02:56:36.346Z,7.87
2018-09-17T02:58:40.188Z,7.67
2018-09-17T03:00:45.446Z,7.10
2018-09-17T03:02:53.523Z,7.10
2018-09-17T03:04:57.286Z,7.00
2018-09-17T03:07:01.845Z,7.20
2018-09-17T03:09:15.674Z,7.83
2018-09-17T03:11:19.480Z,7.30
2018-09-17T03:13:23.289Z,7.87
2018-09-17T03:15:38.279Z,8.17
2018-09-17T03:17:45.692Z,7.73
2018-09-17T03:19:49.481Z,7.73
2018-09-17T03:21:56.866Z,8.83
2018-09-17T03:24:01.446Z,8.80
2018-09-17T03:26:05.368Z,8.90
2018-09-17T03:28:14.090Z,8.90
2018-09-17T03:30:23.717Z,7.17
2018-09-17T03:32:27.508Z,7.37
2018-09-17T03:34:33.452Z,7.83
2018-09-17T03:36:38.026Z,7.40
2018-09-17T03:38:44.780Z,7.73
2018-09-17T03:40:48.682Z,8.23
2018-09-17T03:42:52.447Z,8.23
2018-09-17T03:44:56.847Z,8.63
2018-09-17T03:47:01.453Z,8.40
2018-09-17T03:49:05.829Z,8.70
2018-09-17T03:51:10.423Z,9.55
2018-09-17T03:53:14.230Z,9.83
2018-09-17T03:55:21.390Z,8.50
2018-09-17T03:57:25.886Z,8.93
2018-09-17T03:59:30.077Z,7.73
2018-09-17T04:01:42.338Z,7.30
2018-09-17T04:04:01.863Z,7.70
2018-09-17T04:06:05.710Z,7.83
2018-09-17T04:08:09.621Z,8.27
2018-09-17T04:10:13.468Z,8.73
2018-09-17T04:12:17.228Z,8.00
2018-09-17T04:14:21.217Z,8.50
2018-09-17T04:16:25.258Z,9.00
2018-09-17T04:18:30.049Z,8.87
2018-09-17T04:20:33.814Z,9.10
2018-09-17T04:22:38.049Z,8.60
2018-09-17T04:24:42.056Z,8.50
2018-09-17T04:26:46.669Z,8.85
2018-09-17T04:28:53.680Z,7.83
2018-09-17T04:31:07.378Z,7.50
2018-09-17T04:33:11.454Z,7.53
2018-09-17T04:35:15.143Z,8.83
2018-09-17T04:37:27.682Z,8.00
2018-09-17T04:41:51.547Z,7.53
2018-09-17T04:43:55.565Z,8.73
2018-09-17T04:45:59.638Z,8.53
2018-09-17T04:48:04.992Z,9.70
2018-09-17T04:50:09.966Z,10.03
2018-09-17T04:52:34.606Z,8.50
2018-09-17T04:54:54.884Z,10.00
2018-09-17T04:56:58.720Z,9.37
2018-09-17T04:59:02.566Z,9.97
2018-09-17T05:01:06.433Z,9.03
2018-09-17T05:03:10.428Z,9.30
2018-09-17T05:05:14.353Z,9.40
2018-09-17T05:07:20.766Z,10.40
2018-09-17T05:09:24.456Z,11.23
2018-09-17T05:11:28.478Z,11.73
2018-09-17T05:13:34.847Z,11.13
2018-09-17T05:15:38.656Z,11.83
2018-09-17T05:17:46.245Z,12.17
2018-09-17T05:20:11.821Z,10.43
2018-09-17T05:22:18.191Z,10.90
2018-09-17T05:24:27.748Z,9.03
2018-09-17T05:26:35.372Z,9.77
2018-09-17T05:28:39.232Z,9.10
2018-09-17T05:30:42.993Z,9.40
2018-09-17T05:32:46.737Z,10.77
2018-09-17T05:34:51.643Z,9.83
2018-09-17T05:36:55.441Z,10.40
2018-09-17T05:38:59.270Z,10.03
2018-09-17T05:41:12.499Z,9.20
2018-09-17T05:43:16.360Z,9.17
2018-09-17T05:45:20.197Z,10.60
2018-09-17T05:47:29.829Z,9.63
2018-09-17T05:49:34.146Z,8.90
2018-09-17T05:51:38.149Z,8.83
2018-09-17T05:53:41.939Z,7.80
2018-09-17T05:55:45.744Z,8.43
2018-09-17T05:57:49.519Z,8.50
2018-09-17T05:59:53.382Z,8.43
2018-09-17T06:01:57.168Z,8.97
2018-09-17T06:04:01.038Z,8.33
2018-09-17T06:06:07.102Z,8.80
2018-09-17T06:08:10.903Z,8.17
2018-09-17T06:10:16.785Z,8.03
2018-09-17T06:12:20.851Z,8.00
2018-09-17T06:14:24.661Z,9.07
2018-09-17T06:16:29.090Z,8.03
2018-09-17T06:18:35.042Z,7.43
2018-09-17T06:20:38.762Z,8.20
2018-09-17T06:22:42.501Z,7.47
2018-09-17T06:24:46.353Z,8.03
2018-09-17T06:26:50.105Z,7.67
2018-09-17T06:28:54.005Z,7.87
2018-09-17T06:30:57.851Z,8.00
2018-09-17T06:33:01.593Z,8.63
2018-09-17T06:35:05.443Z,8.30
2018-09-17T06:37:10.210Z,8.47
2018-09-17T06:39:14.121Z,7.60
2018-09-17T06:41:17.887Z,7.57
2018-09-17T06:43:21.650Z,7.60
2018-09-17T06:45:25.876Z,6.70
2018-09-17T06:47:29.726Z,7.90
2018-09-17T06:49:33.487Z,7.90
2018-09-17T06:51:46.789Z,7.10
2018-09-17T06:53:51.484Z,7.10
2018-09-17T06:55:55.284Z,7.10
2018-09-17T06:57:59.031Z,6.37
2018-09-17T07:00:02.898Z,6.63
2018-09-17T07:02:07.004Z,6.90
2018-09-17T07:04:10.898Z,7.10
2018-09-17T07:06:14.787Z,6.17
2018-09-17T07:08:18.594Z,7.97
2018-09-17T07:10:22.490Z,7.10
2018-09-17T07:12:26.283Z,8.60
2018-09-17T07:14:30.129Z,8.40
2018-09-17T07:16:34.146Z,6.33
2018-09-17T07:18:39.111Z,5.65
2018-09-17T07:20:43.526Z,6.45
2018-09-17T07:22:47.382Z,6.22
2018-09-17T07:24:51.250Z,5.70
2018-09-17T07:26:55.070Z,5.25
2018-09-17T07:28:59.386Z,5.58
2018-09-17T07:31:03.230Z,5.67
2018-09-17T07:33:07.056Z,4.87
2018-09-17T07:35:10.860Z,5.58
2018-09-17T07:37:14.631Z,5.90
2018-09-17T07:39:18.474Z,5.72
2018-09-17T07:41:22.252Z,5.90
2018-09-17T07:43:26.087Z,5.85
2018-09-17T07:45:30.026Z,6.45
2018-09-17T07:47:34.796Z,7.00
2018-09-17T07:49:38.635Z,6.90
2018-09-17T07:51:42.436Z,6.83
2018-09-17T07:53:46.355Z,7.55
2018-09-17T07:55:50.169Z,7.03
2018-09-17T07:57:53.950Z,7.30
2018-09-17T07:59:57.805Z,7.20
2018-09-17T08:02:01.648Z,6.43
2018-09-17T08:04:05.437Z,6.87
2018-09-17T08:06:09.426Z,6.27
2018-09-17T08:08:13.236Z,6.20
2018-09-17T08:10:23.905Z,6.30
2018-09-17T08:12:38.136Z,5.70
2018-09-17T08:14:41.898Z,5.97
2018-09-17T08:16:45.737Z,7.20
2018-09-17T08:18:49.458Z,6.90
2018-09-17T08:20:53.364Z,5.50
2018-09-17T08:22:58.369Z,5.33
2018-09-17T08:25:02.245Z,6.57
2018-09-17T08:27:06.253Z,6.13
2018-09-17T08:29:19.687Z,6.27
2018-09-17T08:31:23.591Z,6.50
2018-09-17T08:33:27.480Z,5.23
2018-09-17T08:35:32.368Z,6.10
2018-09-17T08:37:36.163Z,6.47
2018-09-17T08:39:39.926Z,5.92
2018-09-17T08:41:43.888Z,6.10
2018-09-17T08:46:06.605Z,5.90
2018-09-17T08:48:10.360Z,5.87
2018-09-17T08:50:14.211Z,6.10
2018-09-17T08:52:18.230Z,5.50
2018-09-17T08:54:21.978Z,5.73
2018-09-17T08:56:31.928Z,5.20
2018-09-17T08:58:41.062Z,5.53
2018-09-17T09:00:50.052Z,5.23
2018-09-17T09:03:00.590Z,5.33
2018-09-17T09:05:10.976Z,4.90
2018-09-17T09:07:20.040Z,5.20
2018-09-17T09:09:28.648Z,5.20
2018-09-17T09:11:42.637Z,5.17
2018-09-17T09:14:02.676Z,4.50
2018-09-17T09:16:06.883Z,4.03
2018-09-17T09:18:10.956Z,3.83
2018-09-17T09:20:14.798Z,4.83
2018-09-17T09:22:22.419Z,3.90
2018-09-17T09:24:29.470Z,3.73
2018-09-17T09:26:41.612Z,3.70
2018-09-17T09:28:45.704Z,3.80
2018-09-17T09:30:49.600Z,6.53
2018-09-17T09:32:53.516Z,6.55
2018-09-17T09:34:57.261Z,6.13
2018-09-17T09:37:01.084Z,6.50
2018-09-17T09:39:07.807Z,5.67
2018-09-17T09:41:11.616Z,5.50
2018-09-17T09:43:15.370Z,5.77
2018-09-17T09:45:19.124Z,5.20
2018-09-17T09:47:22.860Z,5.27
2018-09-17T09:49:26.618Z,5.13
2018-09-17T09:51:31.536Z,5.33
2018-09-17T09:53:35.315Z,5.00
2018-09-17T09:55:39.086Z,4.90
2018-09-17T09:57:42.874Z,4.47
2018-09-17T09:59:46.649Z,4.80
2018-09-17T10:01:58.557Z,4.60
2018-09-17T10:04:07.963Z,3.60
2018-09-17T10:06:13.018Z,4.17
2018-09-17T10:08:21.503Z,4.17
2018-09-17T10:10:31.287Z,3.80
2018-09-17T10:15:01.723Z,3.80
2018-09-17T10:17:16.778Z,3.70
2018-09-17T10:19:23.251Z,3.53
2018-09-17T10:21:27.288Z,3.70
2018-09-17T10:23:31.170Z,3.43
2018-09-17T10:25:34.996Z,2.60
2018-09-17T10:27:38.838Z,2.00
2018-09-17T10:29:42.731Z,2.10
2018-09-17T10:31:48.062Z,2.00
2018-09-17T10:33:58.788Z,2.00
2018-09-17T10:36:02.617Z,1.80
2018-09-17T10:38:07.246Z,2.00
2018-09-17T10:40:11.201Z,1.73
2018-09-17T10:42:15.030Z,2.40
2018-09-17T10:44:18.869Z,2.30
2018-09-17T10:46:22.687Z,2.40
2018-09-17T10:48:27.086Z,3.30
2018-09-17T10:50:31.079Z,1.97
2018-09-17T10:52:34.958Z,1.90
2018-09-17T10:54:38.744Z,2.17
2018-09-17T10:56:43.335Z,2.50
2018-09-17T10:58:47.162Z,2.23
2018-09-17T11:00:50.977Z,1.97
2018-09-17T11:03:01.644Z,2.17
2018-09-17T11:05:06.551Z,1.80
2018-09-17T11:07:12.711Z,2.13
2018-09-17T11:09:16.695Z,2.00
2018-09-17T11:11:26.227Z,2.50
2018-09-17T11:13:33.752Z,1.90
2018-09-17T11:15:50.955Z,1.77
2018-09-17T11:17:54.899Z,2.23
2018-09-17T11:19:58.696Z,1.70
2018-09-17T11:22:02.537Z,1.77
2018-09-17T11:24:06.494Z,1.90
2018-09-17T11:26:11.595Z,2.50
2018-09-17T11:28:15.794Z,2.40
2018-09-17T11:30:26.644Z,2.23
2018-09-17T11:32:30.395Z,2.50
2018-09-17T11:34:34.244Z,2.00
2018-09-17T11:36:38.073Z,2.23
2018-09-17T11:38:41.912Z,1.73
2018-09-17T11:40:45.746Z,1.93
2018-09-17T11:42:49.608Z,2.07
2018-09-17T11:44:53.553Z,1.90
2018-09-17T11:46:57.272Z,2.17
2018-09-17T11:49:01.648Z,2.20
2018-09-17T11:51:05.461Z,2.00
2018-09-17T11:53:09.348Z,2.30
2018-09-17T11:55:13.229Z,2.47
2018-09-17T11:57:17.007Z,2.50
2018-09-17T11:59:21.344Z,2.40
2018-09-17T12:01:32.297Z,2.40
2018-09-17T12:03:41.338Z,2.17
2018-09-17T12:05:51.365Z,2.13
2018-09-17T12:07:55.138Z,2.10
2018-09-17T12:09:59.210Z,1.70
2018-09-17T12:12:03.083Z,2.57
2018-09-17T12:14:06.959Z,1.93
2018-09-17T12:16:11.155Z,2.10
2018-09-17T12:18:15.997Z,2.00
2018-09-17T12:20:20.062Z,2.33
2018-09-17T12:22:23.812Z,2.30
2018-09-17T12:24:27.828Z,1.73
2018-09-17T12:26:32.713Z,2.30
2018-09-17T12:28:36.506Z,2.30
2018-09-17T12:30:40.335Z,2.13
2018-09-17T12:32:44.199Z,2.00
2018-09-17T12:34:53.958Z,2.20
2018-09-17T12:36:57.861Z,2.27
2018-09-17T12:39:02.687Z,1.97
2018-09-17T12:41:11.631Z,2.57
2018-09-17T12:43:15.352Z,1.97
2018-09-17T12:45:19.490Z,2.10
2018-09-17T12:47:23.246Z,1.87
2018-09-17T12:49:27.034Z,2.10
2018-09-17T12:51:30.850Z,2.27
2018-09-17T12:53:34.762Z,2.20
2018-09-17T12:55:38.603Z,2.20
2018-09-17T12:57:42.521Z,1.83
2018-09-17T12:59:46.429Z,2.10
2018-09-17T13:01:50.236Z,2.33
2018-09-17T13:03:53.986Z,1.90
2018-09-17T13:06:00.362Z,2.27
2018-09-17T13:08:09.204Z,1.80
2018-09-17T13:10:13.082Z,1.93
2018-09-17T13:12:16.872Z,2.40
2018-09-17T13:16:59.516Z,1.70
2018-09-17T13:19:03.402Z,2.23
2018-09-17T13:21:07.382Z,2.00
2018-09-17T13:23:12.438Z,1.70
2018-09-17T13:25:16.945Z,2.00
2018-09-17T13:27:24.793Z,2.00
2018-09-17T13:29:28.583Z,1.90
2018-09-17T13:31:32.816Z,1.90
2018-09-17T13:33:36.534Z,2.37
2018-09-17T13:35:40.365Z,2.00
2018-09-17T13:37:44.176Z,1.40
2018-09-17T13:39:48.029Z,1.40
2018-09-17T13:41:52.933Z,1.80
2018-09-17T13:43:56.698Z,1.70
2018-09-17T13:46:01.719Z,1.67
2018-09-17T13:48:05.841Z,1.80
2018-09-17T13:50:10.677Z,1.60
2018-09-17T13:52:43.646Z,1.90
2018-09-17T13:54:48.515Z,1.77
2018-09-17T13:56:52.394Z,1.60
2018-09-17T13:58:56.198Z,1.80
2018-09-17T14:03:28.615Z,2.30
2018-09-17T14:05:32.411Z,2.03
2018-09-17T14:07:45.541Z,2.30
2018-09-17T14:09:49.433Z,2.43
2018-09-17T14:11:53.248Z,2.10
2018-09-17T14:13:57.143Z,2.23
2018-09-17T14:16:02.011Z,2.10
2018-09-17T14:18:05.890Z,1.87
2018-09-17T14:20:09.870Z,2.63
2018-09-17T14:22:13.651Z,1.90
2018-09-17T14:24:17.680Z,1.83
2018-09-17T14:26:21.563Z,2.20
2018-09-17T14:28:25.460Z,2.13
2018-09-17T14:30:29.284Z,1.97
2018-09-17T14:33:41.152Z,2.13
2018-09-17T14:35:54.710Z,2.40
2018-09-17T14:37:59.671Z,2.10
2018-09-17T14:40:03.739Z,1.90
2018-09-17T14:42:07.690Z,1.97
2018-09-17T14:44:22.384Z,2.10
2018-09-17T14:46:26.697Z,2.43
2018-09-17T14:48:31.044Z,1.87
2018-09-17T14:50:34.865Z,1.90
2018-09-17T14:52:39.510Z,2.37
2018-09-17T14:54:43.324Z,1.83
2018-09-17T14:56:47.319Z,2.10
2018-09-17T14:58:51.841Z,2.13
2018-09-17T15:01:01.339Z,1.97
2018-09-17T15:08:31.701Z,1.80
2018-09-17T15:10:35.776Z,2.60
2018-09-17T15:12:39.995Z,2.00
2018-09-17T15:14:44.124Z,2.08
2018-09-17T15:16:48.203Z,2.00
2018-09-17T15:18:52.211Z,1.97
2018-09-17T15:20:56.556Z,2.30
2018-09-17T15:23:00.581Z,2.17
2018-09-17T15:25:04.560Z,2.00
2018-09-17T15:27:08.683Z,2.30
2018-09-17T15:29:13.152Z,2.10
2018-09-17T15:31:17.270Z,2.10
2018-09-17T15:33:21.359Z,2.20
2018-09-17T15:35:25.495Z,2.07
2018-09-17T15:37:29.949Z,1.80
2018-09-17T15:39:34.230Z,2.07
2018-09-17T15:41:38.785Z,1.90
2018-09-17T15:43:42.916Z,2.30
2018-09-17T15:45:47.280Z,2.40
2018-09-17T15:47:51.754Z,1.90
2018-09-17T15:49:55.993Z,1.90
2018-09-17T15:52:00.084Z,2.37
2018-09-17T15:54:04.250Z,2.00
2018-09-17T15:56:08.401Z,1.70
2018-09-17T15:58:12.506Z,1.90
2018-09-17T16:00:17.836Z,2.17
2018-09-17T16:02:21.856Z,1.90
2018-09-17T16:04:26.319Z,1.87
2018-09-17T16:06:30.381Z,2.03
2018-09-17T16:08:34.583Z,2.00
2018-09-17T16:10:38.763Z,1.70
2018-09-17T16:12:42.764Z,2.00
2018-09-17T16:14:46.823Z,2.40
2018-09-17T16:16:50.789Z,2.37
2018-09-17T16:18:54.796Z,2.40
2018-09-17T16:20:58.909Z,2.07
2018-09-17T16:23:03.357Z,2.70
2018-09-17T16:25:07.487Z,2.30
2018-09-17T16:27:11.531Z,1.73
2018-09-17T16:29:15.777Z,2.47
2018-09-17T16:31:19.612Z,2.10
2018-09-17T16:33:23.712Z,2.23
2018-09-17T16:35:27.793Z,1.90
2018-09-17T16:37:32.097Z,2.00
2018-09-17T16:39:36.176Z,2.30
2018-09-17T16:41:40.360Z,1.90
2018-09-17T16:43:44.523Z,2.30
2018-09-17T16:45:48.501Z,2.10
2018-09-17T16:47:52.527Z,2.20
2018-09-17T16:49:56.640Z,2.40
2018-09-17T16:52:01.214Z,2.00
2018-09-17T16:54:05.999Z,2.00
2018-09-17T16:56:10.158Z,2.17
2018-09-17T16:58:14.872Z,2.33
2018-09-17T17:00:19.362Z,2.07
2018-09-17T17:02:23.559Z,2.00
2018-09-17T17:04:27.954Z,2.40
2018-09-17T17:06:36.156Z,2.13
2018-09-17T17:08:40.743Z,2.37
2018-09-17T17:10:45.042Z,2.33
2018-09-17T17:12:49.593Z,2.00
2018-09-17T17:14:53.689Z,2.03
2018-09-17T17:16:57.884Z,2.13
2018-09-17T17:19:02.581Z,2.27
2018-09-17T17:21:06.695Z,2.20
2018-09-17T17:23:11.838Z,2.30
2018-09-17T17:25:16.091Z,1.90
2018-09-17T17:27:22.191Z,2.10
2018-09-17T17:29:26.929Z,1.70
2018-09-17T17:31:30.738Z,2.30
2018-09-17T17:33:34.620Z,2.40
2018-09-17T17:35:39.306Z,2.20
2018-09-17T17:37:43.584Z,2.10
2018-09-17T17:39:47.990Z,2.47
2018-09-17T17:41:52.425Z,2.47
2018-09-17T17:43:56.407Z,2.37
2018-09-17T17:46:00.826Z,2.30
2018-09-17T17:48:05.474Z,2.07
2018-09-17T17:50:09.680Z,2.80
2018-09-17T17:52:14.382Z,2.73
2018-09-17T17:54:18.373Z,2.60
2018-09-17T17:56:22.455Z,3.23
2018-09-17T17:58:26.731Z,2.70
2018-09-17T18:00:31.427Z,2.50
2018-09-17T18:02:35.836Z,3.10
2018-09-17T18:04:39.919Z,3.20
2018-09-17T18:06:44.720Z,3.27
2018-09-17T18:08:48.703Z,3.07
2018-09-17T18:10:52.991Z,3.10
2018-09-17T18:12:57.637Z,3.30
2018-09-17T18:15:03.468Z,3.10
2018-09-17T18:17:08.018Z,3.40
2018-09-17T18:19:12.332Z,3.60
2018-09-17T18:21:16.776Z,3.20
2018-09-17T18:23:21.911Z,3.70
2018-09-17T18:25:26.280Z,3.40
2018-09-17T18:27:30.359Z,4.40
2018-09-17T18:29:34.608Z,3.90
2018-09-17T18:31:38.672Z,4.03
2018-09-17T18:33:42.907Z,3.50
2018-09-17T18:35:48.172Z,4.27
2018-09-17T18:37:52.486Z,3.80
2018-09-17T18:39:56.896Z,3.63
2018-09-17T18:42:01.386Z,4.37
2018-09-17T18:44:05.713Z,3.53
2018-09-17T18:46:10.192Z,3.63
2018-09-17T18:48:14.413Z,3.40
2018-09-17T18:50:18.625Z,4.07
2018-09-17T18:52:22.713Z,3.47
2018-09-17T18:54:26.928Z,3.80
2018-09-17T18:56:31.576Z,4.50
2018-09-17T18:58:36.088Z,3.83
2018-09-17T19:00:40.738Z,4.30
2018-09-17T19:02:45.007Z,9.33
2018-09-17T19:04:49.871Z,10.90
2018-09-17T19:06:54.157Z,5.60
2018-09-17T19:08:58.421Z,4.67
2018-09-17T19:11:03.315Z,3.77
2018-09-17T19:13:07.577Z,3.30
2018-09-17T19:15:17.477Z,4.30
2018-09-17T19:17:26.614Z,3.70
2018-09-17T19:19:30.774Z,3.37
2018-09-17T19:21:40.991Z,3.80
2018-09-17T19:23:50.493Z,3.10
2018-09-17T19:25:55.179Z,3.47
2018-09-17T19:28:04.640Z,3.07
2018-09-17T19:30:08.970Z,3.40
2018-09-17T19:32:13.549Z,3.40
2018-09-17T19:34:18.181Z,3.10
2018-09-17T19:36:22.565Z,3.30
2018-09-17T19:38:32.761Z,3.53
2018-09-17T19:40:37.025Z,3.47
2018-09-17T19:42:41.022Z,3.50
2018-09-17T19:44:49.525Z,3.17
2018-09-17T19:46:53.563Z,3.10
2018-09-17T19:48:59.566Z,3.23
2018-09-17T19:51:09.447Z,3.30
2018-09-17T19:53:13.743Z,3.30
2018-09-17T19:55:18.218Z,3.20
2018-09-17T19:57:27.890Z,3.87
2018-09-17T20:00:03.691Z,3.23
2018-09-17T20:02:10.983Z,2.87
2018-09-17T20:04:20.280Z,3.37
2018-09-17T20:06:27.512Z,3.30
2018-09-17T20:08:31.908Z,3.30
2018-09-17T20:10:36.126Z,2.93
2018-09-17T20:12:40.413Z,3.20
2018-09-17T20:14:44.553Z,3.30
2018-09-17T20:16:49.165Z,3.70
2018-09-17T20:18:54.819Z,2.90
2018-09-17T20:20:59.049Z,2.60
2018-09-17T20:23:03.921Z,3.33
2018-09-17T20:25:08.849Z,3.83
2018-09-17T20:27:13.354Z,3.33
2018-09-17T20:29:17.621Z,4.00
2018-09-17T20:31:22.012Z,4.23
2018-09-17T20:33:28.740Z,3.85
2018-09-17T20:35:33.212Z,3.80
2018-09-17T20:37:37.379Z,5.30
2018-09-17T20:39:41.430Z,4.37
2018-09-17T20:41:45.475Z,4.07
2018-09-17T20:43:49.509Z,4.60
2018-09-17T20:45:54.016Z,4.23
2018-09-17T20:47:58.515Z,4.30
2018-09-17T20:50:02.538Z,4.33
2018-09-17T20:52:06.955Z,4.07
2018-09-17T20:54:12.181Z,4.13
2018-09-17T20:56:16.277Z,4.40
2018-09-17T20:58:20.294Z,4.40
2018-09-17T21:00:24.392Z,4.23
2018-09-17T21:02:28.476Z,4.10
2018-09-17T21:04:32.716Z,4.57
2018-09-17T21:06:37.760Z,4.90
2018-09-17T21:08:42.377Z,5.93
2018-09-17T21:10:47.274Z,6.60
2018-09-17T21:12:51.691Z,7.67
2018-09-17T21:14:55.790Z,7.50
2018-09-17T21:17:00.644Z,6.50
2018-09-17T21:19:04.755Z,7.40
2018-09-17T21:21:08.699Z,6.90
2018-09-17T21:23:15.717Z,6.00
2018-09-17T21:25:20.833Z,5.93
2018-09-17T21:27:25.341Z,5.13
2018-09-17T21:29:30.356Z,5.47
2018-09-17T21:31:34.863Z,5.50
2018-09-17T21:33:38.845Z,5.50
2018-09-17T21:35:44.418Z,5.17
2018-09-17T21:37:48.839Z,6.87
2018-09-17T21:39:53.122Z,5.87
2018-09-17T21:41:57.292Z,5.30
2018-09-17T21:44:01.381Z,5.50
2018-09-17T21:46:05.609Z,5.47
2018-09-17T21:48:09.860Z,5.90
2018-09-17T21:50:13.906Z,5.07
2018-09-17T21:52:18.622Z,4.63
2018-09-17T21:54:27.516Z,5.33
2018-09-17T21:56:31.993Z,5.43
2018-09-17T21:58:35.916Z,5.07
2018-09-17T22:00:45.059Z,4.87
2018-09-17T22:02:48.828Z,5.97
2018-09-17T22:04:52.765Z,5.83
2018-09-17T22:06:56.856Z,5.50
2018-09-17T22:09:00.763Z,5.90
2018-09-17T22:11:04.800Z,5.87
2018-09-17T22:13:08.653Z,5.87
2018-09-17T22:15:12.415Z,6.37
2018-09-17T22:17:16.179Z,6.70
2018-09-17T22:19:19.984Z,6.97
2018-09-17T22:21:23.934Z,6.23
2018-09-17T22:23:27.737Z,7.40
2018-09-17T22:25:31.518Z,7.00
2018-09-17T22:27:35.281Z,11.90
2018-09-17T22:29:39.059Z,8.50
2018-09-17T22:31:42.905Z,9.90
2018-09-17T22:33:46.974Z,10.18
2018-09-17T22:35:50.724Z,10.93
2018-09-17T22:37:54.460Z,8.43
2018-09-17T22:39:58.248Z,7.90
2018-09-17T22:42:02.160Z,7.30
2018-09-17T22:44:05.945Z,6.80
2018-09-17T22:46:09.800Z,7.07
2018-09-17T22:48:13.599Z,6.90
2018-09-17T22:50:17.499Z,6.10
2018-09-17T22:52:21.276Z,5.70
2018-09-17T22:54:25.050Z,5.93
2018-09-17T22:56:28.865Z,6.37
2018-09-17T22:58:32.622Z,5.83
2018-09-17T23:00:36.488Z,5.37
2018-09-17T23:02:40.352Z,5.80
2018-09-17T23:04:44.161Z,5.17
2018-09-17T23:06:47.960Z,4.93
2018-09-17T23:08:52.046Z,5.33
2018-09-17T23:10:55.867Z,5.60
2018-09-17T23:12:59.752Z,5.87
2018-09-17T23:15:03.667Z,5.90
2018-09-17T23:17:07.491Z,5.80
2018-09-17T23:19:11.360Z,6.07
2018-09-17T23:21:15.172Z,6.70
2018-09-17T23:23:18.964Z,5.90
2018-09-17T23:25:22.712Z,6.53
2018-09-17T23:27:27.080Z,6.10
2018-09-17T23:29:31.166Z,5.70
2018-09-17T23:31:35.378Z,5.63
2018-09-17T23:33:39.401Z,5.60
2018-09-17T23:35:43.651Z,5.93
2018-09-17T23:37:47.959Z,5.70
2018-09-17T23:39:52.107Z,5.53
2018-09-17T23:41:56.216Z,5.20
2018-09-17T23:44:00.245Z,4.60
2018-09-17T23:46:04.366Z,4.77
2018-09-17T23:48:08.425Z,5.60
2018-09-17T23:50:12.559Z,4.80
2018-09-17T23:52:16.538Z,5.50
2018-09-17T23:54:20.943Z,4.60
2018-09-17T23:56:24.903Z,4.30
2018-09-17T23:58:28.895Z,4.70
